RYR42TA EGGP-LEBL
Flight info
| Callsign | RYR42TA |
|---|---|
| Flight time | 1h 57m |
| Altitude | 35000 |
| Route | NANTI L8 STAFA P18 TELBA L151 KIDLI UN859 SOPIL DCT BALAN DCT EVPOK DCT NARAK DCT GAI DCT LOMRA DCT ROCAN DCT PUMAL |
| Aircraft | B738/M-SDE2E3FGHIRWXY/LB1 |
Departure
| Time | 2026-05-06 19:26 |
|---|---|
| Airport | Liverpool John Lennon Airport (EGGP) |
Arrival
| Time | 2026-05-06 21:24 |
|---|---|
| Airport | Josep Tarradellas Barcelona-El Prat Airport (LEBL) |
| Time | Latitude | Longitude | Altitude | Speed | Heading |
|---|---|---|---|---|---|
| 2026-05-06 19:00 | 53.33649 | -2.85793 | 84 ft | 0 kts | 355° |
| 2026-05-06 19:17 | 53.33627 | -2.85790 | 86 ft | 2 kts | 355° |
| 2026-05-06 19:18 | 53.33608 | -2.85783 | 86 ft | 4 kts | 306° |
| 2026-05-06 19:18 | 53.33603 | -2.85748 | 86 ft | 4 kts | 265° |
| 2026-05-06 19:18 | 53.33605 | -2.85716 | 87 ft | 0 kts | 265° |
| 2026-05-06 19:21 | 53.33604 | -2.85719 | 87 ft | 2 kts | 265° |
| 2026-05-06 19:21 | 53.33602 | -2.85766 | 90 ft | 5 kts | 265° |
| 2026-05-06 19:22 | 53.33600 | -2.85824 | 88 ft | 5 kts | 266° |
| 2026-05-06 19:22 | 53.33596 | -2.85889 | 88 ft | 7 kts | 261° |
| 2026-05-06 19:22 | 53.33559 | -2.85936 | 86 ft | 8 kts | 182° |
| 2026-05-06 19:22 | 53.33502 | -2.85942 | 88 ft | 9 kts | 210° |
| 2026-05-06 19:23 | 53.33480 | -2.86041 | 87 ft | 10 kts | 265° |
| 2026-05-06 19:23 | 53.33475 | -2.86154 | 83 ft | 10 kts | 265° |
| 2026-05-06 19:23 | 53.33470 | -2.86265 | 85 ft | 9 kts | 265° |
| 2026-05-06 19:23 | 53.33465 | -2.86372 | 83 ft | 8 kts | 265° |
| 2026-05-06 19:24 | 53.33461 | -2.86462 | 82 ft | 9 kts | 265° |
| 2026-05-06 19:24 | 53.33455 | -2.86593 | 77 ft | 14 kts | 265° |
| 2026-05-06 19:24 | 53.33436 | -2.86685 | 68 ft | 6 kts | 231° |
| 2026-05-06 19:24 | 53.33409 | -2.86719 | 71 ft | 2 kts | 204° |
| 2026-05-06 19:25 | 53.33396 | -2.86726 | 73 ft | 2 kts | 197° |
| 2026-05-06 19:25 | 53.33376 | -2.86730 | 69 ft | 6 kts | 181° |
| 2026-05-06 19:25 | 53.33316 | -2.86686 | 73 ft | 12 kts | 139° |
| 2026-05-06 19:25 | 53.33293 | -2.86533 | 75 ft | 20 kts | 86° |
| 2026-05-06 19:26 | 53.33322 | -2.85891 | 77 ft | 90 kts | 85° |
| 2026-05-06 19:26 | 53.33385 | -2.84495 | 71 ft | 149 kts | 86° |
| 2026-05-06 19:26 | 53.33453 | -2.82667 | 584 ft | 159 kts | 88° |
| 2026-05-06 19:26 | 53.33518 | -2.80743 | 1196 ft | 172 kts | 88° |
| 2026-05-06 19:27 | 53.33466 | -2.78773 | 1998 ft | 171 kts | 107° |
| 2026-05-06 19:27 | 53.32783 | -2.77016 | 2311 ft | 196 kts | 141° |
| 2026-05-06 19:27 | 53.31554 | -2.75841 | 2666 ft | 212 kts | 153° |
| 2026-05-06 19:27 | 53.30198 | -2.74662 | 3014 ft | 228 kts | 150° |
| 2026-05-06 19:28 | 53.28752 | -2.73286 | 3326 ft | 250 kts | 149° |
| 2026-05-06 19:28 | 53.27246 | -2.71805 | 4036 ft | 250 kts | 149° |
| 2026-05-06 19:28 | 53.25750 | -2.70259 | 4774 ft | 256 kts | 147° |
| 2026-05-06 19:28 | 53.24219 | -2.68617 | 5414 ft | 265 kts | 147° |
| 2026-05-06 19:29 | 53.22658 | -2.66903 | 6124 ft | 272 kts | 147° |
| 2026-05-06 19:29 | 53.21057 | -2.65142 | 6762 ft | 280 kts | 148° |
| 2026-05-06 19:29 | 53.19426 | -2.63348 | 7498 ft | 282 kts | 148° |
| 2026-05-06 19:29 | 53.17788 | -2.61519 | 8250 ft | 285 kts | 146° |
| 2026-05-06 19:30 | 53.16704 | -2.60256 | 8709 ft | 289 kts | 146° |
| 2026-05-06 19:30 | 53.14488 | -2.57647 | 9666 ft | 295 kts | 146° |
| 2026-05-06 19:30 | 53.12824 | -2.55685 | 10300 ft | 300 kts | 146° |
| 2026-05-06 19:30 | 53.11647 | -2.54294 | 10451 ft | 315 kts | 145° |
| 2026-05-06 19:31 | 53.09170 | -2.51367 | 10669 ft | 344 kts | 145° |
| 2026-05-06 19:31 | 53.07828 | -2.49783 | 10842 ft | 355 kts | 145° |
| 2026-05-06 19:31 | 53.03720 | -2.44937 | 12012 ft | 366 kts | 145° |
| 2026-05-06 19:32 | 53.01633 | -2.42482 | 12713 ft | 370 kts | 146° |
| 2026-05-06 19:32 | 52.99525 | -2.40005 | 13408 ft | 374 kts | 146° |
| 2026-05-06 19:32 | 52.97392 | -2.37501 | 14057 ft | 378 kts | 145° |
| 2026-05-06 19:32 | 52.95232 | -2.34967 | 14718 ft | 381 kts | 145° |
| 2026-05-06 19:33 | 52.93061 | -2.32425 | 15417 ft | 384 kts | 146° |
| 2026-05-06 19:33 | 52.90872 | -2.29867 | 16104 ft | 386 kts | 146° |
| 2026-05-06 19:33 | 52.88657 | -2.27309 | 16768 ft | 390 kts | 149° |
| 2026-05-06 19:33 | 52.86184 | -2.25506 | 17385 ft | 391 kts | 169° |
| 2026-05-06 19:34 | 52.83492 | -2.25225 | 18067 ft | 389 kts | 188° |
| 2026-05-06 19:34 | 52.80845 | -2.26147 | 18697 ft | 389 kts | 196° |
| 2026-05-06 19:34 | 52.78208 | -2.27262 | 19221 ft | 393 kts | 196° |
| 2026-05-06 19:34 | 52.75541 | -2.28364 | 19753 ft | 397 kts | 195° |
| 2026-05-06 19:35 | 52.72839 | -2.29432 | 20283 ft | 401 kts | 195° |
| 2026-05-06 19:35 | 52.70111 | -2.30478 | 20821 ft | 404 kts | 193° |
| 2026-05-06 19:35 | 52.67329 | -2.30861 | 21308 ft | 412 kts | 176° |
| 2026-05-06 19:35 | 52.64498 | -2.29735 | 21847 ft | 418 kts | 158° |
| 2026-05-06 19:36 | 52.62010 | -2.27351 | 22379 ft | 422 kts | 147° |
| 2026-05-06 19:36 | 52.59580 | -2.24593 | 22872 ft | 426 kts | 146° |
| 2026-05-06 19:36 | 52.57129 | -2.21810 | 23326 ft | 430 kts | 147° |
| 2026-05-06 19:36 | 52.54646 | -2.19024 | 23778 ft | 434 kts | 147° |
| 2026-05-06 19:37 | 52.52139 | -2.16248 | 24190 ft | 436 kts | 147° |
| 2026-05-06 19:37 | 52.49613 | -2.13476 | 24604 ft | 438 kts | 147° |
| 2026-05-06 19:37 | 52.47067 | -2.10698 | 25031 ft | 440 kts | 147° |
| 2026-05-06 19:37 | 52.44510 | -2.07912 | 25429 ft | 443 kts | 147° |
| 2026-05-06 19:38 | 52.41938 | -2.05115 | 25804 ft | 445 kts | 147° |
| 2026-05-06 19:38 | 52.39346 | -2.02297 | 26176 ft | 448 kts | 147° |
| 2026-05-06 19:38 | 52.36746 | -1.99469 | 26547 ft | 450 kts | 147° |
| 2026-05-06 19:38 | 52.34130 | -1.96631 | 26911 ft | 453 kts | 148° |
| 2026-05-06 19:39 | 52.31499 | -1.93781 | 27264 ft | 455 kts | 148° |
| 2026-05-06 19:39 | 52.28847 | -1.90913 | 27608 ft | 458 kts | 148° |
| 2026-05-06 19:39 | 52.26186 | -1.88040 | 27934 ft | 460 kts | 148° |
| 2026-05-06 19:39 | 52.23514 | -1.85177 | 28322 ft | 461 kts | 148° |
| 2026-05-06 19:40 | 52.20822 | -1.82301 | 28655 ft | 463 kts | 148° |
| 2026-05-06 19:40 | 52.18120 | -1.79422 | 28957 ft | 465 kts | 149° |
| 2026-05-06 19:40 | 52.12647 | -1.73599 | 29038 ft | 472 kts | 148° |
| 2026-05-06 19:41 | 52.07143 | -1.67761 | 29503 ft | 472 kts | 149° |
| 2026-05-06 19:41 | 52.04389 | -1.64865 | 29998 ft | 470 kts | 149° |
| 2026-05-06 19:41 | 52.01650 | -1.61999 | 30443 ft | 467 kts | 149° |
| 2026-05-06 19:42 | 51.98936 | -1.59129 | 30890 ft | 464 kts | 149° |
| 2026-05-06 19:42 | 51.96244 | -1.56265 | 31249 ft | 464 kts | 149° |
| 2026-05-06 19:42 | 51.93545 | -1.53392 | 31549 ft | 464 kts | 149° |
| 2026-05-06 19:42 | 51.90841 | -1.50523 | 31855 ft | 464 kts | 149° |
| 2026-05-06 19:43 | 51.88142 | -1.47667 | 32221 ft | 463 kts | 149° |
| 2026-05-06 19:43 | 51.85447 | -1.44830 | 32589 ft | 461 kts | 149° |
| 2026-05-06 19:43 | 51.82756 | -1.42012 | 32971 ft | 460 kts | 149° |
| 2026-05-06 19:43 | 51.80076 | -1.39211 | 33299 ft | 460 kts | 149° |
| 2026-05-06 19:44 | 51.77348 | -1.36537 | 33628 ft | 457 kts | 155° |
| 2026-05-06 19:44 | 51.74444 | -1.34553 | 33990 ft | 452 kts | 165° |
| 2026-05-06 19:44 | 51.71433 | -1.33118 | 34262 ft | 451 kts | 166° |
| 2026-05-06 19:44 | 51.68416 | -1.31698 | 34454 ft | 452 kts | 165° |
| 2026-05-06 19:45 | 51.65399 | -1.30219 | 34649 ft | 454 kts | 165° |
| 2026-05-06 19:45 | 51.62384 | -1.28697 | 34874 ft | 454 kts | 165° |
| 2026-05-06 19:45 | 51.59378 | -1.27163 | 35025 ft | 456 kts | 164° |
| 2026-05-06 19:45 | 51.56344 | -1.25616 | 35009 ft | 458 kts | 164° |
| 2026-05-06 19:46 | 51.50274 | -1.22541 | 35013 ft | 455 kts | 164° |
| 2026-05-06 19:46 | 51.44463 | -1.18624 | 35022 ft | 453 kts | 156° |
| 2026-05-06 19:47 | 51.38773 | -1.14278 | 35013 ft | 453 kts | 157° |
| 2026-05-06 19:47 | 51.33047 | -1.10083 | 35009 ft | 453 kts | 157° |
| 2026-05-06 19:48 | 51.27352 | -1.05929 | 34996 ft | 453 kts | 157° |
| 2026-05-06 19:48 | 51.21617 | -1.01748 | 34992 ft | 453 kts | 157° |
| 2026-05-06 19:49 | 51.15873 | -0.97579 | 35006 ft | 454 kts | 157° |
| 2026-05-06 19:49 | 51.10120 | -0.93413 | 35013 ft | 454 kts | 157° |
| 2026-05-06 19:50 | 51.04361 | -0.89252 | 35005 ft | 455 kts | 158° |
| 2026-05-06 19:50 | 50.98588 | -0.85092 | 35002 ft | 455 kts | 158° |
| 2026-05-06 19:51 | 50.92818 | -0.80944 | 34998 ft | 455 kts | 158° |
| 2026-05-06 19:51 | 50.87044 | -0.76806 | 34991 ft | 455 kts | 157° |
| 2026-05-06 19:52 | 50.81509 | -0.71927 | 35007 ft | 457 kts | 149° |
| 2026-05-06 19:52 | 50.76196 | -0.66385 | 35001 ft | 457 kts | 148° |
| 2026-05-06 19:53 | 50.70881 | -0.60857 | 34988 ft | 457 kts | 148° |
| 2026-05-06 19:53 | 50.65579 | -0.55446 | 34997 ft | 457 kts | 149° |
| 2026-05-06 19:54 | 50.60270 | -0.50082 | 34999 ft | 456 kts | 149° |
| 2026-05-06 19:54 | 50.54920 | -0.44696 | 34989 ft | 456 kts | 149° |
| 2026-05-06 19:55 | 50.49536 | -0.39288 | 34992 ft | 456 kts | 149° |
| 2026-05-06 19:55 | 50.44225 | -0.33966 | 34994 ft | 456 kts | 149° |
| 2026-05-06 19:56 | 50.38870 | -0.28611 | 34986 ft | 456 kts | 148° |
| 2026-05-06 19:56 | 50.33514 | -0.23269 | 34993 ft | 456 kts | 149° |
| 2026-05-06 19:57 | 50.28156 | -0.17946 | 34995 ft | 457 kts | 149° |
| 2026-05-06 19:57 | 50.22789 | -0.12627 | 35001 ft | 457 kts | 149° |
| 2026-05-06 19:58 | 50.17418 | -0.07313 | 34995 ft | 457 kts | 148° |
| 2026-05-06 19:58 | 50.12033 | -0.02014 | 34998 ft | 457 kts | 150° |
| 2026-05-06 19:59 | 50.06186 | 0.01711 | 34997 ft | 454 kts | 167° |
| 2026-05-06 19:59 | 50.00039 | 0.04013 | 34997 ft | 455 kts | 168° |
| 2026-05-06 20:00 | 49.93883 | 0.06340 | 34996 ft | 456 kts | 167° |
| 2026-05-06 20:00 | 49.87724 | 0.08732 | 35000 ft | 456 kts | 167° |
| 2026-05-06 20:01 | 49.81571 | 0.11138 | 35001 ft | 457 kts | 167° |
| 2026-05-06 20:01 | 49.75402 | 0.13542 | 34998 ft | 457 kts | 167° |
| 2026-05-06 20:02 | 49.69226 | 0.15940 | 34994 ft | 458 kts | 167° |
| 2026-05-06 20:02 | 49.63056 | 0.18393 | 34996 ft | 458 kts | 166° |
| 2026-05-06 20:03 | 49.56891 | 0.20909 | 34995 ft | 458 kts | 166° |
| 2026-05-06 20:03 | 49.50717 | 0.23415 | 34990 ft | 459 kts | 166° |
| 2026-05-06 20:04 | 49.44539 | 0.25915 | 34993 ft | 459 kts | 166° |
| 2026-05-06 20:04 | 49.38363 | 0.28388 | 35000 ft | 459 kts | 166° |
| 2026-05-06 20:05 | 49.32181 | 0.30865 | 34994 ft | 459 kts | 166° |
| 2026-05-06 20:05 | 49.26052 | 0.33386 | 34996 ft | 459 kts | 165° |
| 2026-05-06 20:06 | 49.19886 | 0.35998 | 35000 ft | 460 kts | 165° |
| 2026-05-06 20:06 | 49.13715 | 0.38601 | 35001 ft | 460 kts | 165° |
| 2026-05-06 20:07 | 49.07546 | 0.41185 | 34995 ft | 460 kts | 165° |
| 2026-05-06 20:07 | 49.01363 | 0.43765 | 34998 ft | 460 kts | 165° |
| 2026-05-06 20:08 | 48.95188 | 0.46337 | 35002 ft | 461 kts | 165° |
| 2026-05-06 20:08 | 48.88998 | 0.48903 | 34999 ft | 461 kts | 165° |
| 2026-05-06 20:09 | 48.82814 | 0.51464 | 35000 ft | 461 kts | 165° |
| 2026-05-06 20:09 | 48.76625 | 0.54000 | 34994 ft | 460 kts | 166° |
| 2026-05-06 20:10 | 48.70424 | 0.56418 | 34994 ft | 460 kts | 166° |
| 2026-05-06 20:10 | 48.64224 | 0.58820 | 34988 ft | 460 kts | 166° |
| 2026-05-06 20:11 | 48.58026 | 0.61233 | 34995 ft | 460 kts | 166° |
| 2026-05-06 20:11 | 48.51833 | 0.63642 | 34991 ft | 460 kts | 166° |
| 2026-05-06 20:12 | 48.45649 | 0.66135 | 34989 ft | 460 kts | 165° |
| 2026-05-06 20:12 | 48.39478 | 0.68661 | 34986 ft | 460 kts | 165° |
| 2026-05-06 20:13 | 48.33299 | 0.71170 | 34983 ft | 460 kts | 165° |
| 2026-05-06 20:13 | 48.27123 | 0.73664 | 34980 ft | 460 kts | 165° |
| 2026-05-06 20:14 | 48.20941 | 0.76132 | 34975 ft | 460 kts | 166° |
| 2026-05-06 20:14 | 48.15795 | 0.78153 | 34976 ft | 460 kts | 166° |
| 2026-05-06 20:15 | 48.09598 | 0.80582 | 34977 ft | 460 kts | 166° |
| 2026-05-06 20:15 | 48.02398 | 0.83403 | 34980 ft | 460 kts | 166° |
| 2026-05-06 20:16 | 47.97206 | 0.85434 | 34980 ft | 461 kts | 166° |
| 2026-05-06 20:16 | 47.90999 | 0.87857 | 34974 ft | 461 kts | 166° |
| 2026-05-06 20:17 | 47.84843 | 0.90255 | 34973 ft | 462 kts | 166° |
| 2026-05-06 20:17 | 47.78625 | 0.92666 | 34975 ft | 462 kts | 166° |
| 2026-05-06 20:18 | 47.72399 | 0.95071 | 34973 ft | 462 kts | 166° |
| 2026-05-06 20:18 | 47.66167 | 0.97474 | 34977 ft | 463 kts | 166° |
| 2026-05-06 20:19 | 47.59939 | 0.99871 | 34971 ft | 463 kts | 166° |
| 2026-05-06 20:19 | 47.53705 | 1.02264 | 34972 ft | 463 kts | 166° |
| 2026-05-06 20:20 | 47.47473 | 1.04652 | 34973 ft | 463 kts | 166° |
| 2026-05-06 20:20 | 47.41168 | 1.06487 | 34965 ft | 461 kts | 179° |
| 2026-05-06 20:21 | 47.34769 | 1.06357 | 34965 ft | 460 kts | 181° |
| 2026-05-06 20:21 | 47.28399 | 1.07297 | 34974 ft | 461 kts | 173° |
| 2026-05-06 20:22 | 47.22051 | 1.08662 | 34972 ft | 461 kts | 173° |
| 2026-05-06 20:22 | 47.15693 | 1.09959 | 34967 ft | 461 kts | 173° |
| 2026-05-06 20:23 | 47.09332 | 1.11254 | 34977 ft | 461 kts | 173° |
| 2026-05-06 20:23 | 47.02967 | 1.12557 | 34975 ft | 462 kts | 173° |
| 2026-05-06 20:24 | 46.96605 | 1.13862 | 34973 ft | 462 kts | 173° |
| 2026-05-06 20:24 | 46.90239 | 1.15167 | 34971 ft | 462 kts | 173° |
| 2026-05-06 20:25 | 46.83935 | 1.16456 | 34978 ft | 462 kts | 173° |
| 2026-05-06 20:25 | 46.77961 | 1.17673 | 34972 ft | 462 kts | 173° |
| 2026-05-06 20:26 | 46.71592 | 1.18968 | 34976 ft | 462 kts | 173° |
| 2026-05-06 20:26 | 46.65229 | 1.20258 | 34976 ft | 462 kts | 173° |
| 2026-05-06 20:27 | 46.58866 | 1.21546 | 34978 ft | 462 kts | 173° |
| 2026-05-06 20:27 | 46.52501 | 1.22831 | 34969 ft | 462 kts | 173° |
| 2026-05-06 20:28 | 46.46144 | 1.24112 | 34971 ft | 461 kts | 173° |
| 2026-05-06 20:28 | 46.39790 | 1.25388 | 34971 ft | 461 kts | 173° |
| 2026-05-06 20:29 | 46.33437 | 1.26662 | 34969 ft | 461 kts | 173° |
| 2026-05-06 20:29 | 46.27086 | 1.27933 | 34964 ft | 461 kts | 173° |
| 2026-05-06 20:30 | 46.17558 | 1.29832 | 34965 ft | 460 kts | 173° |
| 2026-05-06 20:31 | 46.11207 | 1.31095 | 34965 ft | 460 kts | 173° |
| 2026-05-06 20:31 | 46.04861 | 1.32354 | 34967 ft | 460 kts | 173° |
| 2026-05-06 20:32 | 45.98517 | 1.33610 | 34961 ft | 460 kts | 173° |
| 2026-05-06 20:32 | 45.92170 | 1.34863 | 34967 ft | 460 kts | 174° |
| 2026-05-06 20:33 | 45.85827 | 1.36113 | 34970 ft | 460 kts | 174° |
| 2026-05-06 20:33 | 45.79488 | 1.37359 | 34961 ft | 460 kts | 174° |
| 2026-05-06 20:34 | 45.73189 | 1.38594 | 34952 ft | 460 kts | 174° |
| 2026-05-06 20:34 | 45.66853 | 1.39834 | 34940 ft | 460 kts | 174° |
| 2026-05-06 20:35 | 45.60514 | 1.41071 | 34949 ft | 459 kts | 174° |
| 2026-05-06 20:35 | 45.54181 | 1.42305 | 34950 ft | 459 kts | 174° |
| 2026-05-06 20:36 | 45.47857 | 1.43533 | 34941 ft | 459 kts | 174° |
| 2026-05-06 20:36 | 45.41536 | 1.44761 | 34950 ft | 458 kts | 174° |
| 2026-05-06 20:37 | 45.35227 | 1.45981 | 34953 ft | 457 kts | 174° |
| 2026-05-06 20:37 | 45.28921 | 1.47198 | 34958 ft | 457 kts | 174° |
| 2026-05-06 20:38 | 45.22619 | 1.48411 | 34962 ft | 457 kts | 174° |
| 2026-05-06 20:38 | 45.16319 | 1.49622 | 34958 ft | 456 kts | 174° |
| 2026-05-06 20:39 | 45.10029 | 1.50827 | 34967 ft | 456 kts | 174° |
| 2026-05-06 20:39 | 45.03735 | 1.52031 | 34968 ft | 456 kts | 174° |
| 2026-05-06 20:40 | 44.97447 | 1.53232 | 34969 ft | 456 kts | 175° |
| 2026-05-06 20:40 | 44.91167 | 1.54432 | 34963 ft | 456 kts | 175° |
| 2026-05-06 20:41 | 44.84882 | 1.55627 | 34960 ft | 455 kts | 175° |
| 2026-05-06 20:41 | 44.78604 | 1.56814 | 34973 ft | 455 kts | 175° |
| 2026-05-06 20:42 | 44.72326 | 1.58000 | 34969 ft | 455 kts | 175° |
| 2026-05-06 20:42 | 44.66044 | 1.59186 | 34974 ft | 455 kts | 175° |
| 2026-05-06 20:43 | 44.59762 | 1.60369 | 34971 ft | 455 kts | 175° |
| 2026-05-06 20:43 | 44.53482 | 1.61550 | 34972 ft | 455 kts | 175° |
| 2026-05-06 20:44 | 44.47204 | 1.62727 | 34977 ft | 455 kts | 175° |
| 2026-05-06 20:44 | 44.40927 | 1.63902 | 34966 ft | 455 kts | 175° |
| 2026-05-06 20:45 | 44.34650 | 1.65074 | 34981 ft | 455 kts | 175° |
| 2026-05-06 20:45 | 44.28371 | 1.66244 | 34987 ft | 455 kts | 175° |
| 2026-05-06 20:46 | 44.22093 | 1.67411 | 34985 ft | 455 kts | 175° |
| 2026-05-06 20:46 | 44.15816 | 1.68576 | 34994 ft | 455 kts | 176° |
| 2026-05-06 20:47 | 44.09544 | 1.69737 | 34991 ft | 455 kts | 176° |
| 2026-05-06 20:47 | 44.03273 | 1.70896 | 34996 ft | 454 kts | 176° |
| 2026-05-06 20:48 | 43.97047 | 1.72043 | 34987 ft | 454 kts | 176° |
| 2026-05-06 20:48 | 43.90790 | 1.73195 | 34996 ft | 453 kts | 176° |
| 2026-05-06 20:49 | 43.84549 | 1.74341 | 34998 ft | 452 kts | 176° |
| 2026-05-06 20:49 | 43.78308 | 1.75484 | 34994 ft | 452 kts | 176° |
| 2026-05-06 20:50 | 43.72081 | 1.76622 | 35006 ft | 451 kts | 176° |
| 2026-05-06 20:50 | 43.65861 | 1.77757 | 35012 ft | 451 kts | 176° |
| 2026-05-06 20:51 | 43.59648 | 1.78888 | 34996 ft | 450 kts | 177° |
| 2026-05-06 20:51 | 43.53439 | 1.80016 | 35009 ft | 450 kts | 177° |
| 2026-05-06 20:52 | 43.47231 | 1.81141 | 35016 ft | 450 kts | 177° |
| 2026-05-06 20:52 | 43.41023 | 1.82264 | 34987 ft | 450 kts | 178° |
| 2026-05-06 20:53 | 43.34831 | 1.83386 | 35004 ft | 449 kts | 178° |
| 2026-05-06 20:53 | 43.28637 | 1.84500 | 34965 ft | 449 kts | 178° |
| 2026-05-06 20:53 | 43.25530 | 1.85056 | 34696 ft | 450 kts | 178° |
| 2026-05-06 20:54 | 43.22435 | 1.85613 | 34418 ft | 448 kts | 178° |
| 2026-05-06 20:54 | 43.19345 | 1.86168 | 33783 ft | 447 kts | 178° |
| 2026-05-06 20:54 | 43.16264 | 1.86721 | 33098 ft | 447 kts | 178° |
| 2026-05-06 20:54 | 43.13184 | 1.87272 | 32629 ft | 443 kts | 178° |
| 2026-05-06 20:55 | 43.10145 | 1.87818 | 32138 ft | 440 kts | 178° |
| 2026-05-06 20:55 | 43.07123 | 1.88360 | 31676 ft | 436 kts | 178° |
| 2026-05-06 20:55 | 43.04125 | 1.88896 | 31218 ft | 433 kts | 177° |
| 2026-05-06 20:55 | 43.01150 | 1.89427 | 30769 ft | 430 kts | 177° |
| 2026-05-06 20:56 | 42.98198 | 1.89952 | 30311 ft | 426 kts | 178° |
| 2026-05-06 20:56 | 42.95269 | 1.90475 | 29838 ft | 423 kts | 178° |
| 2026-05-06 20:56 | 42.92358 | 1.90995 | 29333 ft | 420 kts | 178° |
| 2026-05-06 20:56 | 42.89483 | 1.91509 | 28882 ft | 415 kts | 178° |
| 2026-05-06 20:57 | 42.86634 | 1.92015 | 28414 ft | 411 kts | 178° |
| 2026-05-06 20:57 | 42.83809 | 1.92514 | 27928 ft | 408 kts | 178° |
| 2026-05-06 20:57 | 42.81008 | 1.93010 | 27499 ft | 404 kts | 178° |
| 2026-05-06 20:57 | 42.78227 | 1.93500 | 27052 ft | 401 kts | 178° |
| 2026-05-06 20:58 | 42.75464 | 1.93988 | 26598 ft | 399 kts | 177° |
| 2026-05-06 20:58 | 42.72719 | 1.94473 | 26160 ft | 397 kts | 177° |
| 2026-05-06 20:58 | 42.69988 | 1.94954 | 25720 ft | 395 kts | 177° |
| 2026-05-06 20:58 | 42.67265 | 1.95433 | 25278 ft | 394 kts | 177° |
| 2026-05-06 20:59 | 42.64553 | 1.95911 | 24826 ft | 392 kts | 176° |
| 2026-05-06 20:59 | 42.61851 | 1.96387 | 24373 ft | 391 kts | 176° |
| 2026-05-06 20:59 | 42.59156 | 1.96861 | 23934 ft | 390 kts | 176° |
| 2026-05-06 20:59 | 42.56468 | 1.97334 | 23471 ft | 389 kts | 175° |
| 2026-05-06 21:00 | 42.54690 | 1.97646 | 23133 ft | 388 kts | 175° |
| 2026-05-06 21:00 | 42.52018 | 1.98112 | 22793 ft | 385 kts | 175° |
| 2026-05-06 21:00 | 42.49379 | 1.98579 | 22505 ft | 382 kts | 175° |
| 2026-05-06 21:00 | 42.46722 | 1.99046 | 22256 ft | 388 kts | 175° |
| 2026-05-06 21:01 | 42.44032 | 1.99515 | 21997 ft | 391 kts | 175° |
| 2026-05-06 21:01 | 42.41340 | 1.99987 | 21721 ft | 389 kts | 175° |
| 2026-05-06 21:01 | 42.38671 | 2.00454 | 21446 ft | 386 kts | 175° |
| 2026-05-06 21:01 | 42.36022 | 2.00912 | 21185 ft | 382 kts | 176° |
| 2026-05-06 21:02 | 42.33389 | 2.01268 | 20912 ft | 379 kts | 177° |
| 2026-05-06 21:02 | 42.30773 | 2.01572 | 20662 ft | 376 kts | 178° |
| 2026-05-06 21:02 | 42.28174 | 2.01866 | 20406 ft | 374 kts | 178° |
| 2026-05-06 21:02 | 42.25586 | 2.02171 | 20153 ft | 372 kts | 177° |
| 2026-05-06 21:03 | 42.23014 | 2.02484 | 19901 ft | 370 kts | 177° |
| 2026-05-06 21:03 | 42.20452 | 2.02798 | 19647 ft | 369 kts | 177° |
| 2026-05-06 21:03 | 42.17916 | 2.02726 | 19361 ft | 363 kts | 195° |
| 2026-05-06 21:03 | 42.15600 | 2.01483 | 19147 ft | 357 kts | 214° |
| 2026-05-06 21:04 | 42.13632 | 1.99478 | 18926 ft | 354 kts | 221° |
| 2026-05-06 21:04 | 42.11740 | 1.97361 | 18673 ft | 354 kts | 221° |
| 2026-05-06 21:04 | 42.09857 | 1.95225 | 18438 ft | 353 kts | 221° |
| 2026-05-06 21:04 | 42.07975 | 1.93095 | 18183 ft | 353 kts | 221° |
| 2026-05-06 21:05 | 42.06090 | 1.90976 | 17909 ft | 353 kts | 221° |
| 2026-05-06 21:05 | 42.04204 | 1.88870 | 17637 ft | 352 kts | 221° |
| 2026-05-06 21:05 | 42.02317 | 1.86773 | 17375 ft | 352 kts | 221° |
| 2026-05-06 21:05 | 42.00433 | 1.84685 | 17105 ft | 351 kts | 221° |
| 2026-05-06 21:06 | 41.98552 | 1.82607 | 16841 ft | 349 kts | 221° |
| 2026-05-06 21:06 | 41.96676 | 1.80536 | 16567 ft | 348 kts | 221° |
| 2026-05-06 21:06 | 41.94835 | 1.78507 | 16316 ft | 346 kts | 221° |
| 2026-05-06 21:06 | 41.92955 | 1.76436 | 16045 ft | 344 kts | 221° |
| 2026-05-06 21:07 | 41.91135 | 1.74433 | 15806 ft | 342 kts | 221° |
| 2026-05-06 21:07 | 41.89300 | 1.72415 | 15554 ft | 340 kts | 221° |
| 2026-05-06 21:07 | 41.87473 | 1.70407 | 15299 ft | 339 kts | 221° |
| 2026-05-06 21:07 | 41.85654 | 1.68409 | 15054 ft | 337 kts | 221° |
| 2026-05-06 21:08 | 41.83846 | 1.66425 | 14805 ft | 335 kts | 221° |
| 2026-05-06 21:08 | 41.82046 | 1.64450 | 14560 ft | 334 kts | 221° |
| 2026-05-06 21:08 | 41.80252 | 1.62484 | 14325 ft | 332 kts | 221° |
| 2026-05-06 21:08 | 41.78464 | 1.60525 | 14084 ft | 331 kts | 221° |
| 2026-05-06 21:09 | 41.76684 | 1.58577 | 13846 ft | 330 kts | 221° |
| 2026-05-06 21:09 | 41.74908 | 1.56637 | 13569 ft | 329 kts | 221° |
| 2026-05-06 21:09 | 41.72997 | 1.54954 | 13274 ft | 332 kts | 204° |
| 2026-05-06 21:09 | 41.70763 | 1.54167 | 13040 ft | 333 kts | 193° |
| 2026-05-06 21:10 | 41.68487 | 1.53608 | 12773 ft | 332 kts | 192° |
| 2026-05-06 21:10 | 41.66206 | 1.53068 | 12519 ft | 332 kts | 192° |
| 2026-05-06 21:10 | 41.63936 | 1.52521 | 12277 ft | 332 kts | 192° |
| 2026-05-06 21:10 | 41.61670 | 1.51959 | 11996 ft | 331 kts | 193° |
| 2026-05-06 21:11 | 41.59411 | 1.51388 | 11748 ft | 330 kts | 193° |
| 2026-05-06 21:11 | 41.57160 | 1.50816 | 11493 ft | 329 kts | 193° |
| 2026-05-06 21:11 | 41.54908 | 1.50286 | 11232 ft | 329 kts | 188° |
| 2026-05-06 21:11 | 41.52619 | 1.50514 | 10983 ft | 331 kts | 172° |
| 2026-05-06 21:12 | 41.50356 | 1.51071 | 10729 ft | 330 kts | 172° |
| 2026-05-06 21:12 | 41.48132 | 1.51814 | 10479 ft | 332 kts | 158° |
| 2026-05-06 21:12 | 41.46189 | 1.53469 | 10254 ft | 332 kts | 142° |
| 2026-05-06 21:12 | 41.44412 | 1.55418 | 10045 ft | 328 kts | 142° |
| 2026-05-06 21:13 | 41.42689 | 1.57337 | 9964 ft | 317 kts | 141° |
| 2026-05-06 21:13 | 41.41025 | 1.59189 | 9729 ft | 306 kts | 142° |
| 2026-05-06 21:13 | 41.39416 | 1.60968 | 9440 ft | 295 kts | 142° |
| 2026-05-06 21:13 | 41.37852 | 1.62688 | 9048 ft | 289 kts | 142° |
| 2026-05-06 21:14 | 41.36327 | 1.64358 | 8773 ft | 279 kts | 142° |
| 2026-05-06 21:14 | 41.34846 | 1.65976 | 8503 ft | 271 kts | 142° |
| 2026-05-06 21:14 | 41.33409 | 1.67543 | 8216 ft | 265 kts | 142° |
| 2026-05-06 21:14 | 41.31976 | 1.69103 | 7918 ft | 268 kts | 142° |
| 2026-05-06 21:15 | 41.30526 | 1.70680 | 7539 ft | 269 kts | 142° |
| 2026-05-06 21:15 | 41.29086 | 1.72245 | 7163 ft | 266 kts | 142° |
| 2026-05-06 21:15 | 41.27661 | 1.73792 | 6803 ft | 263 kts | 142° |
| 2026-05-06 21:15 | 41.26272 | 1.75300 | 6423 ft | 260 kts | 141° |
| 2026-05-06 21:16 | 41.24864 | 1.76827 | 6052 ft | 256 kts | 141° |
| 2026-05-06 21:16 | 41.23491 | 1.78313 | 5666 ft | 254 kts | 141° |
| 2026-05-06 21:16 | 41.22147 | 1.79771 | 5290 ft | 252 kts | 142° |
| 2026-05-06 21:16 | 41.20855 | 1.81319 | 4900 ft | 250 kts | 129° |
| 2026-05-06 21:17 | 41.19877 | 1.83214 | 4540 ft | 247 kts | 124° |
| 2026-05-06 21:17 | 41.18931 | 1.85113 | 4153 ft | 246 kts | 125° |
| 2026-05-06 21:17 | 41.17976 | 1.86987 | 3775 ft | 244 kts | 126° |
| 2026-05-06 21:17 | 41.17015 | 1.88843 | 3407 ft | 243 kts | 126° |
| 2026-05-06 21:18 | 41.16055 | 1.90676 | 3037 ft | 242 kts | 127° |
| 2026-05-06 21:18 | 41.15089 | 1.92508 | 2663 ft | 243 kts | 126° |
| 2026-05-06 21:18 | 41.14119 | 1.94342 | 2287 ft | 242 kts | 126° |
| 2026-05-06 21:18 | 41.13165 | 1.96138 | 2048 ft | 230 kts | 126° |
| 2026-05-06 21:19 | 41.12380 | 1.97859 | 1976 ft | 208 kts | 107° |
| 2026-05-06 21:19 | 41.12496 | 1.99637 | 1989 ft | 193 kts | 58° |
| 2026-05-06 21:19 | 41.13450 | 2.00761 | 2007 ft | 179 kts | 31° |
| 2026-05-06 21:19 | 41.14482 | 2.01622 | 1990 ft | 173 kts | 28° |
| 2026-05-06 21:20 | 41.15547 | 2.02325 | 2010 ft | 169 kts | 22° |
| 2026-05-06 21:20 | 41.16642 | 2.02909 | 2000 ft | 171 kts | 19° |
| 2026-05-06 21:20 | 41.17766 | 2.03440 | 2000 ft | 172 kts | 18° |
| 2026-05-06 21:20 | 41.18894 | 2.03959 | 1992 ft | 171 kts | 18° |
| 2026-05-06 21:21 | 41.20033 | 2.04478 | 1858 ft | 172 kts | 18° |
| 2026-05-06 21:21 | 41.21128 | 2.04982 | 1611 ft | 164 kts | 18° |
| 2026-05-06 21:21 | 41.22183 | 2.05465 | 1394 ft | 158 kts | 18° |
| 2026-05-06 21:21 | 41.23215 | 2.05936 | 1189 ft | 157 kts | 18° |
| 2026-05-06 21:22 | 41.24241 | 2.06406 | 980 ft | 155 kts | 19° |
| 2026-05-06 21:22 | 41.25260 | 2.06857 | 746 ft | 151 kts | 19° |
| 2026-05-06 21:22 | 41.26235 | 2.07317 | 554 ft | 147 kts | 19° |
| 2026-05-06 21:22 | 41.27185 | 2.07771 | 369 ft | 144 kts | 19° |
| 2026-05-06 21:23 | 41.28125 | 2.08185 | 207 ft | 141 kts | 19° |
| 2026-05-06 21:23 | 41.29044 | 2.08609 | 14 ft | 138 kts | 19° |
| 2026-05-06 21:23 | 41.29830 | 2.08967 | 4 ft | 91 kts | 19° |
| 2026-05-06 21:23 | 41.30283 | 2.09173 | 3 ft | 60 kts | 19° |
| 2026-05-06 21:24 | 41.30544 | 2.09284 | 7 ft | 13 kts | 0° |
| 2026-05-06 21:24 | 41.30623 | 2.09234 | 5 ft | 14 kts | 319° |
| 2026-05-06 21:24 | 41.30685 | 2.09139 | 2 ft | 10 kts | 282° |
| 2026-05-06 21:24 | 41.30648 | 2.09076 | 2 ft | 10 kts | 196° |
| 2026-05-06 21:25 | 41.30585 | 2.09047 | 2 ft | 10 kts | 199° |
| 2026-05-06 21:25 | 41.30523 | 2.09019 | 2 ft | 9 kts | 199° |
| 2026-05-06 21:25 | 41.30463 | 2.08990 | 2 ft | 9 kts | 200° |
| 2026-05-06 21:25 | 41.30410 | 2.08949 | 3 ft | 9 kts | 229° |
| 2026-05-06 21:26 | 41.30379 | 2.08870 | 3 ft | 11 kts | 245° |
| 2026-05-06 21:26 | 41.30344 | 2.08764 | 2 ft | 14 kts | 246° |
| 2026-05-06 21:26 | 41.30299 | 2.08633 | 2 ft | 16 kts | 245° |
| 2026-05-06 21:26 | 41.30253 | 2.08501 | 2 ft | 15 kts | 245° |
| 2026-05-06 21:27 | 41.30210 | 2.08375 | 2 ft | 15 kts | 245° |
| 2026-05-06 21:27 | 41.30168 | 2.08253 | 2 ft | 14 kts | 245° |
| 2026-05-06 21:27 | 41.30128 | 2.08137 | 2 ft | 13 kts | 245° |
| 2026-05-06 21:27 | 41.30090 | 2.08026 | 2 ft | 13 kts | 245° |
| 2026-05-06 21:28 | 41.30054 | 2.07920 | 2 ft | 13 kts | 245° |
| 2026-05-06 21:28 | 41.30018 | 2.07815 | 3 ft | 12 kts | 245° |
| 2026-05-06 21:28 | 41.29995 | 2.07720 | 2 ft | 10 kts | 281° |
| 2026-05-06 21:28 | 41.30029 | 2.07666 | 2 ft | 6 kts | 316° |
| 2026-05-06 21:29 | 41.30060 | 2.07638 | 2 ft | 5 kts | 333° |
| 2026-05-06 21:29 | 41.30095 | 2.07617 | 2 ft | 5 kts | 336° |
| 2026-05-06 21:29 | 41.30130 | 2.07602 | 2 ft | 5 kts | 354° |
| 2026-05-06 21:29 | 41.30160 | 2.07618 | 3 ft | 2 kts | 36° |
| 2026-05-06 21:30 | 41.30170 | 2.07628 | 3 ft | 0 kts | 40° |